Time;durP1;ratioP1;P1;durP2;ratioP2;P2;SDS_P1;SDS_P2;PMS_P1;PMS_P2;Temp;Humidity;BMP_temperature;BMP_pressure;BME280_temperature;BME280_humidity;BME280_pressure;Samples;Min_cycle;Max_cycle;Signal;HPM_P1;HPM_P2
2023/11/21 00:00:37;;;;;;;1.00;0.60;;;6.60;99.90;;;;;;2097146;28;20222;-66
2023/11/21 00:01:38;;;;;;;0.60;0.60;;;6.50;99.90;;;;;;2090083;28;20239;-65
2023/11/21 00:02:40;;;;;;;0.60;0.60;;;6.50;99.90;;;;;;2085613;28;20227;-66
2023/11/21 00:03:41;;;;;;;1.20;0.88;;;6.50;99.90;;;;;;2096290;28;20231;-65
2023/11/21 00:04:42;;;;;;;1.37;0.70;;;6.50;99.90;;;;;;2092955;28;20223;-66
2023/11/21 00:05:43;;;;;;;1.43;0.50;;;6.50;99.90;;;;;;2091568;28;20234;-66
2023/11/21 00:06:46;;;;;;;0.70;0.70;;;6.50;99.90;;;;;;2083571;28;20221;-65
2023/11/21 00:07:47;;;;;;;2.08;0.65;;;6.50;99.90;;;;;;2072079;28;20716;-65
2023/11/21 00:08:47;;;;;;;1.60;0.50;;;6.50;99.90;;;;;;2080596;28;20224;-65
2023/11/21 00:09:48;;;;;;;1.67;0.57;;;6.60;99.90;;;;;;2087985;28;20876;-65
2023/11/21 00:10:49;;;;;;;1.23;0.73;;;6.50;99.90;;;;;;2087739;28;20251;-65
2023/11/21 00:11:50;;;;;;;2.17;0.60;;;6.60;99.90;;;;;;2094820;28;20231;-65
2023/11/21 00:12:50;;;;;;;1.60;0.60;;;6.50;99.90;;;;;;2093394;28;20224;-65
2023/11/21 00:13:52;;;;;;;0.90;0.60;;;6.40;99.90;;;;;;2092877;28;20680;-65
2023/11/21 00:14:52;;;;;;;0.88;0.60;;;6.40;99.90;;;;;;2092394;28;20265;-65
2023/11/21 00:15:53;;;;;;;1.20;0.50;;;6.40;99.90;;;;;;2094335;28;20669;-67
2023/11/21 00:16:54;;;;;;;1.17;0.70;;;6.40;99.90;;;;;;2096089;28;20180;-65
2023/11/21 00:17:55;;;;;;;2.20;0.60;;;6.40;99.90;;;;;;2096370;28;20194;-65
2023/11/21 00:18:55;;;;;;;0.50;0.50;;;6.50;99.90;;;;;;2087711;28;20496;-65
2023/11/21 00:19:56;;;;;;;1.63;0.70;;;6.50;99.90;;;;;;2091640;28;20665;-66
2023/11/21 00:20:58;;;;;;;1.60;0.60;;;6.50;99.90;;;;;;2091010;28;20180;-66
2023/11/21 00:21:59;;;;;;;1.75;0.60;;;6.60;99.90;;;;;;2083993;28;20211;-65
2023/11/21 00:23:02;;;;;;;0.40;0.40;;;6.60;99.90;;;;;;2082413;28;20181;-66
2023/11/21 00:24:03;;;;;;;0.60;0.60;;;6.50;99.90;;;;;;2089647;28;20184;-66
2023/11/21 00:25:04;;;;;;;2.92;0.80;;;6.60;99.90;;;;;;2090383;28;20184;-66
2023/11/21 00:26:05;;;;;;;0.75;0.75;;;6.50;99.90;;;;;;2089709;28;20249;-65
2023/11/21 00:27:06;;;;;;;1.42;0.68;;;6.50;99.90;;;;;;2084892;28;20184;-65
2023/11/21 00:28:07;;;;;;;0.60;0.60;;;6.60;99.90;;;;;;2084822;28;20667;-65
2023/11/21 00:29:08;;;;;;;1.63;0.50;;;6.60;99.90;;;;;;2088038;28;20239;-66
2023/11/21 00:30:09;;;;;;;0.43;0.43;;;6.50;99.90;;;;;;2080316;28;20422;-65
2023/11/21 00:31:10;;;;;;;0.40;0.40;;;6.50;99.90;;;;;;2079667;28;20181;-64
2023/11/21 00:32:10;;;;;;;0.40;0.40;;;6.40;99.90;;;;;;2079991;28;20793;-65
2023/11/21 00:33:11;;;;;;;0.90;0.50;;;6.40;99.90;;;;;;2071523;28;20194;-65
2023/11/21 00:34:12;;;;;;;0.70;0.50;;;6.30;99.90;;;;;;2071885;28;20181;-65
2023/11/21 00:35:13;;;;;;;0.40;0.40;;;6.20;99.90;;;;;;2074721;28;20240;-65
2023/11/21 00:36:14;;;;;;;0.73;0.50;;;6.30;99.90;;;;;;2074253;28;20407;-65
2023/11/21 00:37:14;;;;;;;0.50;0.50;;;6.20;99.90;;;;;;2082749;28;20252;-65
2023/11/21 00:38:15;;;;;;;0.60;0.60;;;6.20;99.90;;;;;;2085872;28;20383;-65
2023/11/21 00:39:16;;;;;;;0.50;0.40;;;6.20;99.90;;;;;;2081549;28;20284;-65
2023/11/21 00:40:19;;;;;;;0.40;0.40;;;6.20;99.90;;;;;;2094368;28;20356;-66
2023/11/21 00:41:20;;;;;;;0.30;0.30;;;6.20;99.90;;;;;;2096669;28;20750;-65
2023/11/21 00:42:21;;;;;;;0.40;0.40;;;6.20;99.90;;;;;;2089545;28;20287;-66
2023/11/21 00:43:23;;;;;;;1.73;0.50;;;6.20;99.90;;;;;;2084492;28;20321;-66
2023/11/21 00:44:23;;;;;;;0.45;0.40;;;6.20;99.90;;;;;;2081522;28;20738;-66
2023/11/21 00:45:24;;;;;;;1.17;0.50;;;6.30;99.90;;;;;;2081571;28;20236;-66
2023/11/21 00:46:28;;;;;;;0.50;0.30;;;6.30;99.90;;;;;;2087981;28;20224;-66
2023/11/21 00:47:28;;;;;;;1.25;0.43;;;6.30;99.90;;;;;;2087442;28;20314;-66
2023/11/21 00:48:29;;;;;;;0.40;0.40;;;6.30;99.90;;;;;;2088874;28;20913;-66
2023/11/21 00:49:30;;;;;;;0.50;0.50;;;6.20;99.90;;;;;;2099503;28;20230;-66
2023/11/21 00:50:31;;;;;;;0.63;0.30;;;6.20;99.90;;;;;;2091495;28;20227;-66
2023/11/21 00:51:32;;;;;;;0.30;0.30;;;6.20;99.90;;;;;;2093007;28;20724;-66
2023/11/21 00:52:33;;;;;;;0.40;0.40;;;6.20;99.90;;;;;;2083401;28;20220;-66
2023/11/21 00:53:34;;;;;;;0.33;0.33;;;6.20;99.90;;;;;;2085269;28;20231;-66
2023/11/21 00:54:34;;;;;;;0.37;0.37;;;6.20;99.90;;;;;;2087626;28;20271;-66
2023/11/21 00:55:35;;;;;;;0.67;0.30;;;6.30;99.90;;;;;;2091494;28;20582;-66
2023/11/21 00:56:37;;;;;;;0.33;0.30;;;6.20;99.90;;;;;;2091097;28;20222;-66
2023/11/21 00:57:38;;;;;;;0.28;0.28;;;6.20;99.90;;;;;;2092913;28;20224;-66
2023/11/21 00:58:39;;;;;;;0.40;0.40;;;6.20;99.90;;;;;;2092412;28;20258;-66
2023/11/21 00:59:39;;;;;;;0.93;0.60;;;6.20;99.90;;;;;;2083855;28;20230;-66
2023/11/21 01:00:41;;;;;;;0.30;0.30;;;6.20;99.90;;;;;;2091216;28;20226;-66
2023/11/21 01:01:41;;;;;;;0.40;0.40;;;6.30;99.90;;;;;;2092049;28;20231;-66
2023/11/21 01:02:44;;;;;;;0.47;0.30;;;6.20;99.90;;;;;;2093565;28;20318;-66
2023/11/21 01:03:46;;;;;;;0.40;0.40;;;6.20;99.90;;;;;;2087981;28;20231;-66
2023/11/21 01:04:47;;;;;;;0.40;0.40;;;6.20;99.90;;;;;;2088143;28;20220;-66
2023/11/21 01:05:50;;;;;;;0.30;0.30;;;6.20;99.90;;;;;;2079657;28;20225;-66
2023/11/21 01:06:50;;;;;;;0.77;0.40;;;6.20;99.90;;;;;;2087589;28;20219;-66
2023/11/21 01:07:51;;;;;;;1.03;0.50;;;6.20;99.90;;;;;;2091414;28;20228;-66
2023/11/21 01:08:52;;;;;;;0.93;0.37;;;6.20;99.90;;;;;;2090799;28;20224;-66
2023/11/21 01:09:52;;;;;;;1.10;0.40;;;6.20;99.90;;;;;;2083594;28;20232;-66
2023/11/21 01:10:53;;;;;;;0.40;0.30;;;6.20;99.90;;;;;;2082402;28;20221;-67
2023/11/21 01:11:54;;;;;;;0.30;0.30;;;6.20;99.90;;;;;;2081309;28;20741;-66
2023/11/21 01:12:55;;;;;;;0.57;0.30;;;6.20;99.90;;;;;;2084883;28;20267;-67
2023/11/21 01:13:55;;;;;;;0.40;0.40;;;6.20;99.90;;;;;;2092661;28;20184;-67
2023/11/21 01:14:57;;;;;;;0.20;0.20;;;6.20;99.90;;;;;;2084359;28;20184;-66
2023/11/21 01:15:58;;;;;;;0.55;0.43;;;6.20;99.90;;;;;;2084027;28;20185;-66
2023/11/21 01:16:58;;;;;;;0.20;0.20;;;6.10;99.90;;;;;;2074717;28;20545;-66
2023/11/21 01:17:59;;;;;;;0.40;0.40;;;6.10;99.90;;;;;;2087459;28;20230;-66
2023/11/21 01:19:01;;;;;;;0.40;0.40;;;6.10;99.90;;;;;;2082166;28;20200;-66
2023/11/21 01:20:06;;;;;;;0.30;0.30;;;6.20;99.90;;;;;;2074814;28;20644;-66
2023/11/21 01:21:07;;;;;;;0.30;0.30;;;6.20;99.90;;;;;;2079434;28;20193;-66
2023/11/21 01:22:09;;;;;;;0.30;0.30;;;6.10;99.90;;;;;;2079862;28;20227;-66
2023/11/21 01:23:09;;;;;;;0.40;0.40;;;6.10;99.90;;;;;;2092720;28;20249;-66
2023/11/21 01:24:10;;;;;;;0.50;0.30;;;6.20;99.90;;;;;;2087796;28;20605;-66
2023/11/21 01:25:11;;;;;;;0.30;0.30;;;6.20;99.90;;;;;;2074577;28;20189;-66
2023/11/21 01:26:11;;;;;;;0.20;0.20;;;6.20;99.90;;;;;;2089914;28;20262;-67
2023/11/21 01:27:12;;;;;;;0.40;0.40;;;6.20;99.90;;;;;;2073025;28;20626;-66
2023/11/21 01:28:13;;;;;;;0.30;0.30;;;6.20;99.90;;;;;;2083784;28;20236;-66
2023/11/21 01:29:14;;;;;;;0.30;0.30;;;6.20;99.90;;;;;;2089218;28;20237;-66
2023/11/21 01:30:16;;;;;;;0.30;0.30;;;6.20;99.90;;;;;;2075658;28;20247;-66
2023/11/21 01:31:16;;;;;;;0.75;0.38;;;6.20;99.90;;;;;;2074911;28;20233;-66
2023/11/21 01:32:17;;;;;;;0.50;0.40;;;6.20;99.90;;;;;;2074337;28;20237;-66
2023/11/21 01:33:18;;;;;;;0.40;0.40;;;6.20;99.90;;;;;;2080151;28;20609;-66
2023/11/21 01:34:19;;;;;;;0.43;0.40;;;6.20;99.90;;;;;;2088391;28;20278;-66
2023/11/21 01:35:21;;;;;;;0.63;0.50;;;6.30;99.90;;;;;;2090188;28;20322;-66
2023/11/21 01:36:22;;;;;;;1.50;0.40;;;6.30;99.90;;;;;;2095667;28;20238;-66
2023/11/21 01:37:22;;;;;;;0.30;0.30;;;6.30;99.90;;;;;;2086891;28;20732;-66
2023/11/21 01:38:23;;;;;;;0.63;0.40;;;6.20;99.90;;;;;;2085162;28;20227;-66
2023/11/21 01:39:25;;;;;;;0.30;0.30;;;6.30;99.90;;;;;;2090314;28;20262;-66
2023/11/21 01:40:26;;;;;;;0.80;0.50;;;6.20;99.90;;;;;;2092459;28;20310;-66
2023/11/21 01:41:28;;;;;;;0.40;0.40;;;6.20;99.90;;;;;;2090321;28;20223;-66
2023/11/21 01:42:29;;;;;;;1.08;0.40;;;6.30;99.90;;;;;;2084532;28;20233;-66
2023/11/21 01:43:31;;;;;;;0.30;0.30;;;6.30;99.90;;;;;;2075302;28;20232;-65
2023/11/21 01:44:32;;;;;;;0.30;0.30;;;6.40;99.90;;;;;;2076464;28;20289;-66
2023/11/21 01:45:39;;;;;;;0.35;0.35;;;6.50;99.90;;;;;;2084965;28;20230;-66
2023/11/21 01:46:41;;;;;;;0.30;0.30;;;6.50;99.90;;;;;;2096998;28;20235;-66
2023/11/21 01:47:44;;;;;;;0.30;0.30;;;6.50;99.90;;;;;;2091262;28;20227;-66
2023/11/21 01:48:45;;;;;;;0.50;0.40;;;6.50;99.90;;;;;;2087594;28;20329;-66
2023/11/21 01:49:48;;;;;;;0.30;0.30;;;6.50;99.90;;;;;;2090640;28;20277;-66
2023/11/21 01:50:49;;;;;;;0.30;0.30;;;6.50;99.90;;;;;;2092305;28;20227;-66
2023/11/21 01:51:51;;;;;;;0.37;0.37;;;6.50;99.90;;;;;;2084881;28;20260;-66
2023/11/21 01:52:52;;;;;;;0.30;0.30;;;6.50;99.90;;;;;;2080531;28;20335;-66
2023/11/21 01:53:53;;;;;;;0.40;0.40;;;6.50;99.90;;;;;;2086461;28;20235;-68
2023/11/21 01:54:54;;;;;;;0.63;0.40;;;6.60;99.90;;;;;;2091402;28;20293;-67
2023/11/21 01:55:56;;;;;;;0.30;0.30;;;6.60;99.90;;;;;;2081739;28;20201;-66
2023/11/21 01:57:02;;;;;;;0.22;0.22;;;6.60;99.90;;;;;;2079065;28;20560;-67
2023/11/21 01:58:03;;;;;;;0.50;0.50;;;6.50;99.90;;;;;;2093776;28;20685;-66
2023/11/21 01:59:04;;;;;;;1.23;0.40;;;6.50;99.90;;;;;;2088966;28;20209;-67
2023/11/21 02:00:15;;;;;;;1.60;0.40;;;6.60;99.90;;;;;;2092652;28;20263;-66
2023/11/21 02:01:18;;;;;;;0.98;0.30;;;6.60;99.90;;;;;;2088046;28;20706;-66
2023/11/21 02:02:19;;;;;;;0.30;0.30;;;6.60;99.90;;;;;;2088753;28;20774;-66
2023/11/21 02:03:19;;;;;;;0.30;0.30;;;6.50;99.90;;;;;;2078133;28;20240;-66
2023/11/21 02:04:21;;;;;;;1.13;0.40;;;6.50;99.90;;;;;;2074648;28;20225;-66
2023/11/21 02:05:22;;;;;;;0.55;0.40;;;6.40;99.90;;;;;;2083073;28;20248;-66
2023/11/21 02:06:24;;;;;;;0.30;0.30;;;6.50;99.90;;;;;;2080467;28;20229;-66
2023/11/21 02:07:25;;;;;;;0.38;0.38;;;6.40;99.90;;;;;;2086821;28;20292;-66
2023/11/21 02:08:26;;;;;;;0.73;0.30;;;6.40;99.90;;;;;;2086230;28;20656;-66
2023/11/21 02:09:29;;;;;;;0.38;0.38;;;6.40;99.90;;;;;;2089713;28;20227;-66
2023/11/21 02:10:31;;;;;;;0.40;0.40;;;6.40;99.90;;;;;;2086438;28;20313;-66
2023/11/21 02:11:34;;;;;;;0.30;0.30;;;6.40;99.90;;;;;;2086782;28;20323;-66
2023/11/21 02:12:36;;;;;;;0.30;0.30;;;6.40;99.90;;;;;;2087085;28;20303;-66
2023/11/21 02:13:36;;;;;;;0.30;0.30;;;6.40;99.90;;;;;;2080605;28;20217;-66
2023/11/21 02:14:37;;;;;;;0.30;0.30;;;6.40;99.90;;;;;;2081770;28;20282;-66
2023/11/21 02:15:38;;;;;;;0.20;0.20;;;6.40;99.90;;;;;;2083713;28;20263;-66
2023/11/21 02:16:40;;;;;;;0.30;0.30;;;6.30;99.90;;;;;;2078102;28;20240;-66
2023/11/21 02:17:44;;;;;;;1.15;0.40;;;6.30;99.90;;;;;;2078503;28;20466;-66
2023/11/21 02:18:47;;;;;;;0.88;0.40;;;6.40;99.90;;;;;;2077995;28;20232;-66
2023/11/21 02:19:51;;;;;;;0.32;0.32;;;6.40;99.90;;;;;;2084859;28;20223;-66
2023/11/21 02:20:51;;;;;;;0.50;0.43;;;6.40;99.90;;;;;;2088621;28;20238;-66
2023/11/21 02:21:53;;;;;;;0.37;0.37;;;6.40;99.90;;;;;;2090474;28;20319;-66
2023/11/21 02:22:59;;;;;;;0.32;0.32;;;6.40;99.90;;;;;;2093235;28;20243;-67
2023/11/21 02:24:00;;;;;;;1.13;0.40;;;6.20;99.90;;;;;;2086891;28;20279;-67
2023/11/21 02:25:00;;;;;;;0.30;0.30;;;6.20;99.90;;;;;;2087097;28;20192;-66
2023/11/21 02:26:04;;;;;;;0.40;0.40;;;6.20;99.90;;;;;;2092671;28;20430;-66
2023/11/21 02:27:06;;;;;;;0.43;0.40;;;6.20;99.90;;;;;;2090987;28;20211;-66
2023/11/21 02:28:06;;;;;;;0.38;0.38;;;6.30;99.90;;;;;;2099466;28;20669;-67
2023/11/21 02:29:10;;;;;;;1.07;0.40;;;6.20;99.90;;;;;;2088448;28;20326;-66
2023/11/21 02:30:13;;;;;;;0.30;0.30;;;6.20;99.90;;;;;;2088626;28;20690;-66
2023/11/21 02:31:14;;;;;;;0.30;0.30;;;6.20;99.90;;;;;;2091302;28;20247;-66
2023/11/21 02:32:16;;;;;;;0.83;0.77;;;6.20;99.90;;;;;;2090850;28;20667;-66
2023/11/21 02:33:17;;;;;;;0.60;0.35;;;6.20;99.90;;;;;;2079610;28;20233;-66
2023/11/21 02:34:18;;;;;;;0.60;0.30;;;6.30;99.90;;;;;;2081980;28;20664;-66
2023/11/21 02:35:22;;;;;;;2.20;0.57;;;6.30;99.90;;;;;;2081266;28;20241;-66
2023/11/21 02:36:23;;;;;;;0.50;0.50;;;6.40;99.90;;;;;;2083755;28;20229;-66
2023/11/21 02:37:24;;;;;;;0.50;0.50;;;6.30;99.90;;;;;;2089765;28;20748;-66
2023/11/21 02:38:24;;;;;;;1.23;0.60;;;6.20;99.90;;;;;;2081283;28;20224;-66
2023/11/21 02:39:25;;;;;;;1.33;0.67;;;6.30;99.90;;;;;;2072410;28;20305;-66
2023/11/21 02:40:26;;;;;;;0.90;0.80;;;6.20;99.90;;;;;;2080776;28;20220;-67
2023/11/21 02:41:27;;;;;;;0.80;0.70;;;6.10;99.90;;;;;;2072431;28;20231;-66
2023/11/21 02:42:27;;;;;;;1.73;0.90;;;6.10;99.90;;;;;;2083940;28;20325;-66
2023/11/21 02:43:28;;;;;;;0.90;0.60;;;6.20;99.90;;;;;;2090535;28;20255;-66
2023/11/21 02:44:30;;;;;;;1.20;1.10;;;6.10;99.90;;;;;;2079444;28;20292;-66
2023/11/21 02:45:31;;;;;;;0.97;0.50;;;6.10;99.90;;;;;;2083283;28;20234;-66
2023/11/21 02:46:33;;;;;;;0.88;0.50;;;6.10;99.90;;;;;;2078234;28;20274;-66
2023/11/21 02:47:34;;;;;;;0.50;0.50;;;6.00;99.90;;;;;;2090795;28;20686;-66
2023/11/21 02:48:35;;;;;;;0.47;0.40;;;5.90;99.90;;;;;;2090340;28;20556;-66
2023/11/21 02:49:36;;;;;;;0.43;0.43;;;5.90;99.90;;;;;;2089744;28;20697;-66
2023/11/21 02:50:37;;;;;;;0.40;0.40;;;5.90;99.90;;;;;;2087971;28;20223;-66
2023/11/21 02:51:38;;;;;;;0.63;0.53;;;6.00;99.90;;;;;;2088458;28;20239;-66
2023/11/21 02:52:42;;;;;;;0.40;0.40;;;5.90;99.90;;;;;;2081745;28;20417;-66
2023/11/21 02:53:43;;;;;;;1.48;0.50;;;6.00;99.90;;;;;;2074908;28;20600;-66
2023/11/21 02:54:43;;;;;;;0.40;0.40;;;6.00;99.90;;;;;;2084085;28;20307;-66
2023/11/21 02:55:44;;;;;;;0.40;0.40;;;6.00;99.90;;;;;;2082801;28;20710;-66
2023/11/21 02:56:45;;;;;;;0.50;0.50;;;6.00;99.90;;;;;;2080028;28;20320;-66
2023/11/21 02:57:46;;;;;;;0.85;0.50;;;5.90;99.90;;;;;;2083926;28;20587;-66
2023/11/21 02:58:47;;;;;;;2.00;0.50;;;5.90;99.90;;;;;;2090860;28;20300;-66
2023/11/21 02:59:47;;;;;;;0.43;0.33;;;5.80;99.90;;;;;;2090932;28;20623;-66
2023/11/21 03:00:48;;;;;;;0.40;0.40;;;5.80;99.90;;;;;;2089473;28;20361;-66
2023/11/21 03:01:49;;;;;;;0.33;0.33;;;5.70;99.90;;;;;;2090665;28;20230;-66
2023/11/21 03:02:50;;;;;;;0.30;0.30;;;5.80;99.90;;;;;;2090139;28;20238;-66
2023/11/21 03:03:51;;;;;;;0.73;0.40;;;5.80;99.90;;;;;;2092812;28;20231;-66
2023/11/21 03:04:52;;;;;;;0.40;0.40;;;5.80;99.90;;;;;;2094359;28;20267;-66
2023/11/21 03:05:53;;;;;;;0.40;0.40;;;5.80;99.90;;;;;;2091918;28;20223;-66
2023/11/21 03:06:53;;;;;;;0.60;0.50;;;5.80;99.90;;;;;;2087436;28;20686;-67
2023/11/21 03:07:54;;;;;;;0.40;0.40;;;5.80;99.90;;;;;;2089359;28;20205;-67
2023/11/21 03:08:55;;;;;;;0.40;0.40;;;5.80;99.90;;;;;;2089601;28;20230;-66
2023/11/21 03:09:55;;;;;;;0.70;0.50;;;5.80;99.90;;;;;;2082089;28;20192;-66
2023/11/21 03:10:56;;;;;;;0.80;0.43;;;5.70;99.90;;;;;;2089127;28;20223;-67
2023/11/21 03:11:57;;;;;;;0.43;0.43;;;5.60;99.90;;;;;;2088113;28;20693;-66
2023/11/21 03:12:58;;;;;;;0.43;0.43;;;5.60;99.90;;;;;;2088228;28;20180;-66
2023/11/21 03:13:58;;;;;;;2.60;0.60;;;5.50;99.90;;;;;;2088729;28;20720;-66
2023/11/21 03:14:59;;;;;;;2.20;0.50;;;5.50;99.90;;;;;;2088194;28;20174;-66
2023/11/21 03:16:00;;;;;;;0.40;0.40;;;5.40;99.90;;;;;;2070793;28;20189;-66
2023/11/21 03:17:00;;;;;;;0.40;0.40;;;5.40;99.90;;;;;;2076902;28;20216;-66
2023/11/21 03:18:02;;;;;;;1.00;0.60;;;5.40;99.90;;;;;;2082587;28;20181;-67
2023/11/21 03:19:02;;;;;;;0.35;0.35;;;5.40;99.90;;;;;;2086671;28;20200;-66
2023/11/21 03:20:05;;;;;;;1.50;0.60;;;5.40;99.90;;;;;;2087327;28;20648;-66
2023/11/21 03:21:08;;;;;;;0.93;0.40;;;5.40;99.90;;;;;;2081120;28;20185;-66
2023/11/21 03:22:09;;;;;;;0.40;0.40;;;5.40;99.90;;;;;;2080890;28;20192;-67
2023/11/21 03:23:10;;;;;;;0.57;0.57;;;5.40;99.90;;;;;;2082327;28;20188;-66
2023/11/21 03:24:11;;;;;;;0.50;0.40;;;5.40;99.90;;;;;;2087776;28;20524;-66
2023/11/21 03:25:12;;;;;;;0.50;0.50;;;5.40;99.90;;;;;;2081513;28;20239;-66
2023/11/21 03:26:12;;;;;;;0.60;0.60;;;5.50;99.90;;;;;;2081322;28;20747;-66
2023/11/21 03:27:13;;;;;;;0.87;0.53;;;5.40;99.90;;;;;;2088138;28;20957;-66
2023/11/21 03:28:14;;;;;;;0.40;0.40;;;5.40;99.90;;;;;;2086652;28;20469;-66
2023/11/21 03:29:15;;;;;;;0.68;0.43;;;5.40;99.90;;;;;;2081188;28;20734;-67
2023/11/21 03:30:16;;;;;;;0.70;0.40;;;5.50;99.90;;;;;;2082613;28;20319;-66
2023/11/21 03:31:18;;;;;;;1.45;0.60;;;5.50;99.90;;;;;;2088480;28;20228;-66
2023/11/21 03:32:19;;;;;;;6.57;0.80;;;5.50;99.90;;;;;;2088613;28;20240;-66
2023/11/21 03:33:20;;;;;;;0.40;0.40;;;5.40;99.90;;;;;;2086305;28;20235;-66
2023/11/21 03:34:27;;;;;;;0.73;0.40;;;5.40;99.90;;;;;;2085578;28;20252;-66
2023/11/21 03:35:28;;;;;;;1.10;0.60;;;5.40;99.90;;;;;;2083332;28;20350;-66
2023/11/21 03:36:29;;;;;;;1.03;0.80;;;5.40;99.90;;;;;;2082387;28;20233;-67
2023/11/21 03:37:29;;;;;;;0.43;0.43;;;5.40;99.90;;;;;;2090623;28;20231;-66
2023/11/21 03:38:30;;;;;;;0.40;0.40;;;5.40;99.90;;;;;;2073829;28;20239;-66
2023/11/21 03:39:31;;;;;;;1.13;0.50;;;5.50;99.90;;;;;;2070792;28;20593;-66
2023/11/21 03:40:31;;;;;;;0.57;0.40;;;5.60;99.90;;;;;;2076892;28;20256;-66
2023/11/21 03:41:33;;;;;;;0.60;0.50;;;5.60;99.90;;;;;;2086742;28;20236;-66
2023/11/21 03:42:34;;;;;;;1.10;0.50;;;5.60;99.90;;;;;;2082782;28;20794;-66
2023/11/21 03:43:36;;;;;;;0.40;0.40;;;5.60;99.90;;;;;;2082957;28;20223;-66
2023/11/21 03:44:37;;;;;;;0.32;0.32;;;5.60;99.90;;;;;;2077842;28;20232;-66
2023/11/21 03:45:40;;;;;;;1.87;0.80;;;5.60;99.90;;;;;;2078115;28;20259;-66
2023/11/21 03:46:41;;;;;;;0.77;0.60;;;5.60;99.90;;;;;;2074043;28;20232;-67
2023/11/21 03:47:42;;;;;;;0.67;0.50;;;5.70;99.90;;;;;;2076438;28;20236;-66
2023/11/21 03:48:43;;;;;;;0.73;0.55;;;5.70;99.90;;;;;;2085145;28;20225;-66
2023/11/21 03:49:43;;;;;;;0.73;0.70;;;5.80;99.90;;;;;;2088999;28;20267;-66
2023/11/21 03:50:44;;;;;;;0.93;0.60;;;5.80;99.90;;;;;;2090496;28;20731;-66
2023/11/21 03:51:45;;;;;;;0.60;0.40;;;5.80;99.90;;;;;;2083501;28;20282;-66
2023/11/21 03:52:45;;;;;;;0.70;0.50;;;5.70;99.90;;;;;;2078889;28;20324;-66
2023/11/21 03:53:46;;;;;;;0.63;0.50;;;5.70;99.90;;;;;;2082329;28;20317;-67
2023/11/21 03:54:47;;;;;;;1.60;0.67;;;5.80;99.90;;;;;;2083375;28;20220;-66
2023/11/21 03:55:47;;;;;;;0.70;0.60;;;5.80;99.90;;;;;;2075953;28;20619;-67
2023/11/21 03:56:49;;;;;;;1.00;0.50;;;5.80;99.90;;;;;;2082786;28;20234;-66
2023/11/21 03:57:51;;;;;;;0.50;0.50;;;5.80;99.90;;;;;;2085155;28;20614;-66
2023/11/21 03:58:51;;;;;;;1.55;0.50;;;5.90;99.90;;;;;;2083780;28;20249;-66
2023/11/21 03:59:52;;;;;;;0.60;0.60;;;5.90;99.90;;;;;;2082506;28;20252;-66
2023/11/21 04:00:53;;;;;;;1.27;0.53;;;5.90;99.90;;;;;;2089299;28;20688;-67
2023/11/21 04:01:56;;;;;;;0.50;0.50;;;5.90;99.90;;;;;;2089793;28;20209;-67
2023/11/21 04:02:57;;;;;;;0.60;0.50;;;5.90;99.90;;;;;;2100194;28;20647;-66
2023/11/21 04:03:58;;;;;;;0.93;0.60;;;5.90;99.90;;;;;;2093474;28;20221;-66
2023/11/21 04:05:00;;;;;;;0.40;0.40;;;5.90;99.90;;;;;;2084214;28;20666;-66
2023/11/21 04:06:01;;;;;;;0.57;0.57;;;5.90;99.90;;;;;;2091118;28;20188;-66
2023/11/21 04:07:01;;;;;;;0.60;0.60;;;5.90;99.90;;;;;;2094919;28;20194;-67
2023/11/21 04:08:02;;;;;;;0.70;0.53;;;5.90;99.90;;;;;;2089633;28;20672;-66
2023/11/21 04:09:04;;;;;;;0.90;0.50;;;6.00;99.90;;;;;;2081805;28;20215;-66
2023/11/21 04:10:08;;;;;;;1.02;0.55;;;6.00;99.90;;;;;;2080164;28;20693;-67
2023/11/21 04:11:11;;;;;;;1.85;0.60;;;6.00;99.90;;;;;;2082438;28;20191;-67
2023/11/21 04:12:12;;;;;;;0.80;0.60;;;6.00;99.90;;;;;;2082089;28;20680;-66
2023/11/21 04:13:13;;;;;;;0.47;0.40;;;6.00;99.90;;;;;;2083405;28;20654;-66
2023/11/21 04:14:14;;;;;;;0.47;0.43;;;6.10;99.90;;;;;;2081359;28;20234;-66
2023/11/21 04:15:15;;;;;;;2.00;0.70;;;6.10;99.90;;;;;;2071547;28;20237;-67
2023/11/21 04:16:16;;;;;;;0.50;0.50;;;6.00;99.90;;;;;;2071724;28;20245;-66
2023/11/21 04:17:19;;;;;;;0.83;0.53;;;6.10;99.90;;;;;;2081939;28;20234;-66
2023/11/21 04:18:20;;;;;;;0.50;0.50;;;6.10;99.90;;;;;;2065545;28;20225;-66
2023/11/21 04:19:20;;;;;;;2.10;0.60;;;6.00;99.90;;;;;;2064351;28;20746;-66
2023/11/21 04:20:23;;;;;;;0.80;0.63;;;5.90;99.90;;;;;;2080503;28;20269;-67
2023/11/21 04:21:24;;;;;;;0.50;0.50;;;5.80;99.90;;;;;;2081451;28;20227;-66
2023/11/21 04:22:24;;;;;;;0.50;0.50;;;5.80;99.90;;;;;;2083354;28;20256;-67
2023/11/21 04:23:25;;;;;;;0.80;0.50;;;5.90;99.90;;;;;;2090091;28;20229;-66
2023/11/21 04:24:26;;;;;;;0.47;0.40;;;5.90;99.90;;;;;;2081711;28;20233;-66
2023/11/21 04:25:28;;;;;;;0.50;0.50;;;5.80;99.90;;;;;;2081804;28;20236;-66
2023/11/21 04:26:29;;;;;;;1.10;0.55;;;5.70;99.90;;;;;;2080582;28;20216;-66
2023/11/21 04:27:30;;;;;;;1.30;0.60;;;5.80;99.90;;;;;;2083088;28;20247;-66
2023/11/21 04:28:30;;;;;;;0.70;0.70;;;5.80;99.90;;;;;;2082042;28;20239;-67
2023/11/21 04:29:31;;;;;;;0.63;0.50;;;5.90;99.90;;;;;;2074315;28;20229;-67
2023/11/21 04:30:32;;;;;;;1.43;0.50;;;5.80;99.90;;;;;;2071939;28;20689;-66
2023/11/21 04:31:33;;;;;;;0.90;0.50;;;5.80;99.90;;;;;;2089531;28;20228;-67
2023/11/21 04:32:34;;;;;;;0.90;0.50;;;5.80;99.90;;;;;;2083112;28;20303;-67
2023/11/21 04:33:34;;;;;;;0.67;0.67;;;5.80;99.90;;;;;;2085064;28;20294;-67
2023/11/21 04:34:35;;;;;;;0.73;0.60;;;5.70;99.90;;;;;;2087231;28;20231;-66
2023/11/21 04:35:36;;;;;;;1.83;0.60;;;5.60;99.90;;;;;;2093519;28;20328;-66
2023/11/21 04:36:36;;;;;;;0.50;0.50;;;5.60;99.90;;;;;;2085977;28;20255;-66
2023/11/21 04:37:37;;;;;;;0.50;0.50;;;5.50;99.90;;;;;;2080913;28;20305;-67
2023/11/21 04:38:38;;;;;;;3.93;0.80;;;5.50;99.90;;;;;;2089897;28;20231;-66
2023/11/21 04:39:38;;;;;;;0.60;0.60;;;5.40;99.90;;;;;;2083060;28;20216;-67
2023/11/21 04:40:39;;;;;;;0.50;0.50;;;5.40;99.90;;;;;;2084379;28;20649;-66
2023/11/21 04:41:40;;;;;;;0.50;0.50;;;5.30;99.90;;;;;;2086028;28;20228;-66
2023/11/21 04:42:41;;;;;;;0.70;0.70;;;5.30;99.90;;;;;;2087744;28;20679;-66
2023/11/21 04:43:42;;;;;;;0.67;0.67;;;5.30;99.90;;;;;;2078519;28;20226;-66
2023/11/21 04:44:43;;;;;;;0.60;0.60;;;5.30;99.90;;;;;;2095562;28;20675;-66
2023/11/21 04:45:44;;;;;;;3.88;2.13;;;5.30;99.90;;;;;;2091989;28;20720;-66
2023/11/21 04:46:45;;;;;;;21.67;12.50;;;5.20;99.90;;;;;;2088900;28;20221;-66
2023/11/21 04:47:46;;;;;;;7.23;5.50;;;5.20;99.90;;;;;;2081136;28;20262;-66
2023/11/21 04:48:46;;;;;;;6.80;4.50;;;5.10;99.90;;;;;;2082789;28;20213;-66
2023/11/21 04:49:48;;;;;;;4.63;3.43;;;5.10;99.90;;;;;;2084244;28;20224;-66
2023/11/21 04:50:48;;;;;;;3.28;1.80;;;5.10;99.90;;;;;;2075842;28;20310;-66
2023/11/21 04:51:49;;;;;;;3.33;2.07;;;5.10;99.90;;;;;;2078372;28;20673;-66
2023/11/21 04:52:49;;;;;;;2.00;1.50;;;5.10;99.90;;;;;;2082569;28;20345;-66
2023/11/21 04:53:50;;;;;;;1.20;1.10;;;5.10;99.90;;;;;;2077540;28;20225;-66
2023/11/21 04:54:51;;;;;;;2.30;1.10;;;5.10;99.90;;;;;;2088888;28;20259;-66
2023/11/21 04:55:52;;;;;;;1.30;0.90;;;5.10;99.90;;;;;;2088515;28;20224;-66
2023/11/21 04:56:53;;;;;;;1.15;0.80;;;5.10;99.90;;;;;;2096766;28;20211;-68
2023/11/21 04:57:54;;;;;;;0.80;0.77;;;5.10;99.90;;;;;;2091183;28;20192;-66
2023/11/21 04:58:55;;;;;;;1.43;0.60;;;5.10;99.90;;;;;;2090821;28;20659;-67
2023/11/21 04:59:56;;;;;;;0.90;0.60;;;5.10;99.90;;;;;;2091531;28;20693;-67
2023/11/21 05:00:57;;;;;;;1.00;0.77;;;5.10;99.90;;;;;;2090278;28;20189;-67
2023/11/21 05:01:59;;;;;;;1.80;0.90;;;4.90;99.90;;;;;;2090504;28;20180;-66
2023/11/21 05:03:03;;;;;;;1.23;1.00;;;5.00;99.90;;;;;;2090096;28;20251;-66
2023/11/21 05:04:05;;;;;;;1.73;0.98;;;4.90;99.90;;;;;;2088270;28;20189;-66
2023/11/21 05:05:07;;;;;;;1.02;0.80;;;4.80;99.90;;;;;;2086566;28;20667;-66
2023/11/21 05:06:10;;;;;;;1.58;1.30;;;4.80;99.90;;;;;;2091552;28;20275;-67
2023/11/21 05:07:11;;;;;;;1.70;1.48;;;4.90;99.90;;;;;;2088904;28;20191;-66
2023/11/21 05:08:13;;;;;;;3.70;1.73;;;4.80;99.90;;;;;;2075978;28;20193;-67
2023/11/21 05:09:13;;;;;;;2.42;1.88;;;4.90;99.90;;;;;;2083870;28;20267;-66
2023/11/21 05:10:14;;;;;;;2.83;1.90;;;4.80;99.90;;;;;;2086706;28;20228;-67
2023/11/21 05:11:28;;;;;;;3.27;1.80;;;4.80;99.90;;;;;;2078680;28;20607;-66
2023/11/21 05:12:37;;;;;;;2.40;1.70;;;4.90;99.90;;;;;;2092441;28;20235;-66
2023/11/21 05:13:38;;;;;;;2.83;2.20;;;4.80;99.90;;;;;;2085171;28;20418;-66
2023/11/21 05:14:39;;;;;;;2.22;1.73;;;4.80;99.90;;;;;;2087070;28;20610;-66
2023/11/21 05:15:41;;;;;;;3.03;1.70;;;4.70;99.90;;;;;;2079443;28;20229;-66
2023/11/21 05:16:42;;;;;;;1.70;1.60;;;4.70;99.90;;;;;;2093306;28;20604;-66
2023/11/21 05:17:44;;;;;;;1.45;1.33;;;4.60;99.90;;;;;;2093067;28;20274;-66
2023/11/21 05:18:45;;;;;;;3.58;1.50;;;4.70;99.90;;;;;;2090659;28;20653;-66
2023/11/21 05:19:48;;;;;;;2.17;1.40;;;4.60;99.90;;;;;;2080954;28;20252;-66
2023/11/21 05:20:49;;;;;;;2.55;1.30;;;4.50;99.90;;;;;;2087086;28;20239;-66
2023/11/21 05:21:50;;;;;;;2.47;1.50;;;4.40;99.90;;;;;;2085371;28;20369;-66
2023/11/21 05:22:51;;;;;;;2.20;1.50;;;4.40;99.90;;;;;;2083167;28;20224;-66
2023/11/21 05:23:52;;;;;;;4.23;1.97;;;4.40;99.90;;;;;;2084062;28;20473;-66